Time;durP1;ratioP1;P1;durP2;ratioP2;P2;SDS_P1;SDS_P2;PMS_P1;PMS_P2;Temp;Humidity;BMP_temperature;BMP_pressure;BME280_temperature;BME280_humidity;BME280_pressure;Samples;Min_cycle;Max_cycle;Signal;HPM_P1;HPM_P2
2021/03/11 00:00:58;;;;;;;29.35;18.70;;;6.50;99.90;;;;;;5050087;28;20227;-79
2021/03/11 00:03:25;;;;;;;25.90;15.85;;;6.50;99.90;;;;;;5035565;28;20195;-79
2021/03/11 00:05:52;;;;;;;31.67;19.67;;;6.50;99.90;;;;;;5034181;28;20242;-79
2021/03/11 00:08:19;;;;;;;31.00;19.20;;;6.50;99.90;;;;;;5044462;28;20195;-80
2021/03/11 00:10:45;;;;;;;32.30;16.60;;;6.50;99.90;;;;;;5048558;28;20211;-80
2021/03/11 00:13:12;;;;;;;28.48;17.48;;;6.60;99.90;;;;;;5035227;28;20206;-79
2021/03/11 00:15:41;;;;;;;25.25;18.27;;;6.50;99.90;;;;;;5033742;28;20199;-78
2021/03/11 00:18:09;;;;;;;35.55;17.73;;;6.60;99.90;;;;;;5034459;28;20213;-79
2021/03/11 00:20:36;;;;;;;32.65;20.23;;;6.50;99.90;;;;;;5033062;28;20215;-79
2021/03/11 00:23:02;;;;;;;29.88;18.40;;;6.60;99.90;;;;;;5034647;28;20196;-79
2021/03/11 00:25:31;;;;;;;31.15;17.17;;;6.60;99.90;;;;;;5036781;28;20233;-79
2021/03/11 00:27:57;;;;;;;26.15;16.75;;;6.60;99.90;;;;;;5037950;28;20196;-79
2021/03/11 00:30:25;;;;;;;32.05;19.13;;;6.60;99.90;;;;;;5041242;28;20234;-79
2021/03/11 00:32:53;;;;;;;23.67;12.60;;;6.60;99.90;;;;;;5043502;28;20195;-79
2021/03/11 00:35:19;;;;;;;32.15;18.50;;;6.50;99.90;;;;;;5037949;28;20207;-78
2021/03/11 00:37:47;;;;;;;29.45;18.35;;;6.50;99.90;;;;;;5038077;28;20558;-79
2021/03/11 00:40:16;;;;;;;31.90;18.98;;;6.50;99.90;;;;;;5037545;28;20215;-78
2021/03/11 00:42:43;;;;;;;34.42;19.15;;;6.40;99.90;;;;;;5037634;28;20210;-78
2021/03/11 00:45:11;;;;;;;39.38;21.98;;;6.30;99.90;;;;;;5037502;28;20200;-79
2021/03/11 00:47:38;;;;;;;34.65;18.73;;;6.30;99.90;;;;;;5036410;28;20215;-80
2021/03/11 00:50:10;;;;;;;41.50;22.45;;;6.20;99.90;;;;;;5038065;28;20227;-79
2021/03/11 00:52:37;;;;;;;39.45;21.42;;;6.20;99.90;;;;;;5045422;28;20259;-80
2021/03/11 00:55:05;;;;;;;35.40;21.38;;;6.20;99.90;;;;;;5053953;28;20744;-79
2021/03/11 00:57:32;;;;;;;38.47;22.83;;;6.10;99.90;;;;;;5046007;28;20186;-79
2021/03/11 00:59:58;;;;;;;32.65;20.23;;;6.10;99.90;;;;;;5054416;28;20225;-78
2021/03/11 01:02:24;;;;;;;42.15;22.70;;;6.10;99.90;;;;;;5049994;28;20195;-80
2021/03/11 01:04:50;;;;;;;40.83;22.17;;;6.10;99.90;;;;;;5056996;28;20201;-77
2021/03/11 01:07:19;;;;;;;40.00;22.77;;;6.10;99.90;;;;;;5056803;28;20215;-79
2021/03/11 01:09:45;;;;;;;42.88;24.05;;;6.10;99.90;;;;;;5037489;28;20230;-80
2021/03/11 01:12:13;;;;;;;45.60;24.02;;;6.10;99.90;;;;;;5037169;28;20256;-79
2021/03/11 01:14:39;;;;;;;39.72;23.60;;;6.10;99.90;;;;;;5039632;28;20195;-79
2021/03/11 01:17:06;;;;;;;37.90;23.15;;;6.10;99.90;;;;;;5036312;28;20338;-79
2021/03/11 01:19:32;;;;;;;39.30;23.17;;;6.10;99.90;;;;;;5036937;28;20215;-80
2021/03/11 01:21:58;;;;;;;38.47;20.95;;;6.10;99.90;;;;;;5036841;28;20199;-76
2021/03/11 01:24:25;;;;;;;36.80;20.95;;;6.10;99.90;;;;;;5037138;28;20665;-80
2021/03/11 01:26:51;;;;;;;37.75;19.58;;;6.10;99.90;;;;;;5036186;28;20219;-79
2021/03/11 01:29:18;;;;;;;38.08;20.27;;;6.10;99.90;;;;;;5037627;28;20703;-79
2021/03/11 01:31:44;;;;;;;32.53;20.60;;;6.10;99.90;;;;;;5050769;28;20285;-78
2021/03/11 01:34:10;;;;;;;34.88;21.45;;;6.20;99.90;;;;;;5057035;28;20194;-79
2021/03/11 01:36:36;;;;;;;30.30;16.95;;;6.20;99.90;;;;;;5055323;28;20218;-79
2021/03/11 01:39:04;;;;;;;38.03;20.70;;;6.20;99.90;;;;;;5056663;28;20214;-80
2021/03/11 01:41:31;;;;;;;36.42;21.38;;;6.20;99.90;;;;;;5057199;28;20195;-79
2021/03/11 01:43:58;;;;;;;35.75;20.98;;;6.20;99.90;;;;;;5054817;28;20195;-80
2021/03/11 01:46:25;;;;;;;38.47;21.48;;;6.20;99.90;;;;;;5054675;28;20218;-79
2021/03/11 01:48:51;;;;;;;31.88;20.20;;;6.20;99.90;;;;;;5055544;28;20262;-80
2021/03/11 01:51:21;;;;;;;36.85;19.75;;;6.30;99.90;;;;;;5055978;28;20267;-79
2021/03/11 01:53:47;;;;;;;33.70;18.38;;;6.30;99.90;;;;;;5049490;28;20199;-79
2021/03/11 01:56:14;;;;;;;31.02;19.52;;;6.40;99.90;;;;;;5043001;28;20199;-79
2021/03/11 01:58:42;;;;;;;36.28;18.50;;;6.40;99.90;;;;;;5036718;28;20550;-79
2021/03/11 02:01:08;;;;;;;33.08;19.40;;;6.40;99.90;;;;;;5053464;28;20575;-80
2021/03/11 02:03:34;;;;;;;31.77;17.95;;;6.40;99.90;;;;;;5054481;28;20199;-79
2021/03/11 02:06:02;;;;;;;29.58;17.85;;;6.50;99.90;;;;;;5054291;28;20207;-78
2021/03/11 02:08:29;;;;;;;29.65;18.02;;;6.50;99.90;;;;;;5056669;28;20206;-79
2021/03/11 02:10:56;;;;;;;27.63;15.27;;;6.60;99.90;;;;;;5056640;28;20726;-79
2021/03/11 02:13:36;;;;;;;27.77;16.02;;;6.60;99.90;;;;;;5056297;28;20190;-79
2021/03/11 02:16:11;;;;;;;25.80;14.50;;;6.60;99.90;;;;;;5055047;28;20316;-80
2021/03/11 02:18:46;;;;;;;26.70;15.30;;;6.70;99.90;;;;;;5056154;28;20579;-79
2021/03/11 02:21:18;;;;;;;25.52;15.57;;;6.70;99.90;;;;;;5056711;28;20179;-79
2021/03/11 02:24:28;;;;;;;24.45;13.40;;;6.70;99.90;;;;;;5056369;28;20599;-79
2021/03/11 02:27:16;;;;;;;30.55;14.48;;;6.80;99.90;;;;;;5054805;28;20210;-78
2021/03/11 02:29:46;;;;;;;18.30;11.25;;;6.80;99.90;;;;;;5055642;28;20222;-77
2021/03/11 02:32:14;;;;;;;17.95;11.35;;;6.80;99.90;;;;;;5055555;28;20277;-79
2021/03/11 02:34:43;;;;;;;22.88;12.55;;;6.90;99.90;;;;;;5057085;28;20221;-79
2021/03/11 02:37:13;;;;;;;26.90;14.65;;;6.90;99.90;;;;;;5054746;28;20542;-79
2021/03/11 02:39:43;;;;;;;18.13;12.35;;;6.90;99.90;;;;;;5055624;28;20218;-79
2021/03/11 02:42:11;;;;;;;21.10;12.27;;;6.90;99.90;;;;;;5056081;28;20182;-79
2021/03/11 02:44:39;;;;;;;16.92;12.05;;;7.00;99.90;;;;;;5055822;28;20241;-79
2021/03/11 02:47:06;;;;;;;20.75;12.85;;;7.00;99.90;;;;;;5053957;28;20237;-80
2021/03/11 02:49:33;;;;;;;14.48;9.25;;;7.10;99.90;;;;;;5055258;28;20218;-79
2021/03/11 02:52:03;;;;;;;18.20;12.00;;;7.10;99.90;;;;;;5055162;28;20198;-78
2021/03/11 02:54:30;;;;;;;20.88;12.40;;;7.10;99.90;;;;;;5053111;28;20264;-80
2021/03/11 02:56:58;;;;;;;14.05;9.35;;;7.10;99.90;;;;;;5054778;28;20282;-79
2021/03/11 02:59:25;;;;;;;17.67;10.13;;;7.10;99.90;;;;;;5051352;28;20222;-79
2021/03/11 03:01:54;;;;;;;12.70;8.23;;;7.10;99.90;;;;;;5050311;28;20267;-79
2021/03/11 03:04:22;;;;;;;15.43;8.25;;;7.20;99.90;;;;;;5053786;28;20621;-80
2021/03/11 03:06:49;;;;;;;12.73;8.45;;;7.20;99.90;;;;;;5053929;28;20214;-80
2021/03/11 03:09:18;;;;;;;11.77;6.95;;;7.30;99.90;;;;;;5054741;28;20580;-79
2021/03/11 03:11:45;;;;;;;9.90;6.18;;;7.40;99.90;;;;;;5055217;28;20198;-79
2021/03/11 03:14:12;;;;;;;7.30;5.45;;;7.40;99.90;;;;;;5054756;28;20203;-79
2021/03/11 03:16:39;;;;;;;6.90;5.82;;;7.50;99.90;;;;;;5053703;28;20201;-79
2021/03/11 03:19:06;;;;;;;7.93;5.25;;;7.50;99.90;;;;;;5055082;28;20214;-79
2021/03/11 03:21:34;;;;;;;5.18;4.43;;;7.60;99.90;;;;;;5054778;28;20229;-79
2021/03/11 03:24:02;;;;;;;5.03;4.53;;;7.60;99.90;;;;;;5054973;28;20194;-78
2021/03/11 03:26:28;;;;;;;7.10;5.97;;;7.60;99.90;;;;;;5054292;28;20236;-79
2021/03/11 03:28:54;;;;;;;5.57;4.97;;;7.70;99.90;;;;;;5053997;28;20202;-77
2021/03/11 03:31:20;;;;;;;4.70;4.25;;;7.70;99.90;;;;;;5045887;28;20278;-78
2021/03/11 03:33:47;;;;;;;8.70;5.03;;;7.70;99.90;;;;;;5055414;28;20204;-79
2021/03/11 03:36:13;;;;;;;6.25;4.05;;;7.70;99.90;;;;;;5053975;28;20218;-78
2021/03/11 03:38:40;;;;;;;4.40;3.45;;;7.70;99.90;;;;;;5054985;28;20255;-80
2021/03/11 03:41:09;;;;;;;6.35;4.43;;;7.60;99.90;;;;;;5054823;28;20222;-78
2021/03/11 03:43:37;;;;;;;6.35;5.10;;;7.50;99.90;;;;;;5055391;28;20576;-79
2021/03/11 03:46:07;;;;;;;6.57;5.07;;;7.50;99.90;;;;;;5053430;28;20215;-79
2021/03/11 03:48:43;;;;;;;6.07;4.50;;;7.40;99.90;;;;;;5054588;28;20247;-79
2021/03/11 03:51:10;;;;;;;5.28;3.60;;;7.40;99.90;;;;;;5055022;28;20202;-79
2021/03/11 03:53:41;;;;;;;5.53;4.38;;;7.40;99.90;;;;;;5054218;28;20268;-79
2021/03/11 03:56:21;;;;;;;8.85;5.25;;;7.40;99.90;;;;;;5036401;28;20176;-80
2021/03/11 03:58:48;;;;;;;7.50;5.53;;;7.40;99.90;;;;;;5035084;28;20329;-79
2021/03/11 04:01:15;;;;;;;5.88;3.88;;;7.50;99.90;;;;;;5054268;28;20199;-79
2021/03/11 04:03:41;;;;;;;5.47;4.43;;;7.50;99.90;;;;;;5050548;22;739930;-81
2021/03/11 04:06:10;;;;;;;9.90;4.80;;;7.40;99.90;;;;;;5054710;28;20218;-80
2021/03/11 04:08:39;;;;;;;6.05;4.90;;;7.40;99.90;;;;;;5063246;28;20204;-80
2021/03/11 04:11:07;;;;;;;5.78;4.40;;;7.50;99.90;;;;;;5063655;28;20199;-81
2021/03/11 04:13:34;;;;;;;8.40;5.80;;;7.40;99.90;;;;;;5064213;28;20218;-82
2021/03/11 04:16:00;;;;;;;8.05;5.03;;;7.40;99.90;;;;;;5063267;28;20187;-80
2021/03/11 04:18:27;;;;;;;6.07;4.60;;;7.40;99.90;;;;;;5063057;28;20257;-82
2021/03/11 04:20:54;;;;;;;6.40;4.85;;;7.40;99.90;;;;;;5064492;28;20205;-82
2021/03/11 04:23:21;;;;;;;8.27;5.00;;;7.50;99.90;;;;;;5060981;28;20201;-79
2021/03/11 04:25:49;;;;;;;9.73;5.07;;;7.50;99.90;;;;;;5060397;28;20190;-81
2021/03/11 04:28:16;;;;;;;5.75;4.80;;;7.50;99.90;;;;;;5060456;28;20198;-81
2021/03/11 04:30:43;;;;;;;6.22;5.03;;;7.60;99.90;;;;;;5058673;28;20250;-79
2021/03/11 04:33:10;;;;;;;5.20;4.60;;;7.60;99.90;;;;;;5058304;28;20622;-80
2021/03/11 04:35:36;;;;;;;7.25;5.43;;;7.70;99.90;;;;;;5065823;28;20194;-80
2021/03/11 04:38:05;;;;;;;4.97;4.00;;;7.70;99.90;;;;;;5073983;28;20348;-81
2021/03/11 04:40:31;;;;;;;8.48;4.70;;;7.70;99.90;;;;;;5078139;28;20579;-81
2021/03/11 04:42:57;;;;;;;6.15;5.13;;;7.80;99.90;;;;;;5077691;28;20199;-80
2021/03/11 04:45:25;;;;;;;5.20;4.68;;;7.80;99.90;;;;;;5061558;28;20588;-81
2021/03/11 04:47:51;;;;;;;6.47;4.78;;;7.80;99.90;;;;;;5052405;28;20324;-81
2021/03/11 04:50:18;;;;;;;5.57;4.70;;;7.90;99.90;;;;;;5056546;28;20663;-81
2021/03/11 04:52:45;;;;;;;6.28;4.78;;;7.90;99.90;;;;;;5056254;28;20205;-81
2021/03/11 04:55:11;;;;;;;5.60;5.10;;;7.90;99.90;;;;;;5057213;28;20222;-82
2021/03/11 04:57:38;;;;;;;6.05;5.30;;;7.90;99.90;;;;;;5056415;28;20198;-81
2021/03/11 05:00:07;;;;;;;5.30;4.70;;;7.90;99.90;;;;;;5057588;28;20195;-81
2021/03/11 05:02:35;;;;;;;10.80;5.03;;;8.00;99.90;;;;;;5056850;28;20194;-81
2021/03/11 05:05:06;;;;;;;6.97;3.97;;;8.00;99.90;;;;;;5058305;28;20249;-80
2021/03/11 05:07:33;;;;;;;7.80;5.03;;;8.00;99.90;;;;;;5063724;28;20317;-81
2021/03/11 05:09:59;;;;;;;7.68;5.35;;;7.80;99.90;;;;;;5059192;28;20195;-81
2021/03/11 05:12:25;;;;;;;7.85;4.93;;;7.80;99.90;;;;;;5058348;28;20194;-80
2021/03/11 05:14:51;;;;;;;11.20;5.45;;;7.70;99.90;;;;;;5057567;28;20214;-78
2021/03/11 05:17:18;;;;;;;5.05;4.55;;;7.70;99.90;;;;;;5054921;28;20221;-77
2021/03/11 05:19:45;;;;;;;5.38;4.13;;;7.70;99.90;;;;;;5057256;28;20202;-81
2021/03/11 05:22:11;;;;;;;5.32;4.47;;;7.70;99.90;;;;;;5059435;28;20194;-81
2021/03/11 05:24:37;;;;;;;6.78;5.40;;;7.70;99.90;;;;;;5057967;28;20213;-80
2021/03/11 05:27:04;;;;;;;7.15;4.93;;;7.70;99.90;;;;;;5058406;28;20217;-81
2021/03/11 05:29:30;;;;;;;9.07;5.07;;;7.70;99.90;;;;;;5057266;28;20198;-80
2021/03/11 05:31:57;;;;;;;6.07;5.00;;;7.70;99.90;;;;;;5057721;28;20254;-80
2021/03/11 05:34:23;;;;;;;5.85;4.68;;;7.70;99.90;;;;;;5060296;28;20218;-80
2021/03/11 05:36:50;;;;;;;8.75;5.60;;;7.60;99.90;;;;;;5068275;28;20194;-80
2021/03/11 05:39:16;;;;;;;6.45;5.30;;;7.60;99.90;;;;;;5077745;28;20263;-80
2021/03/11 05:41:45;;;;;;;7.07;5.50;;;7.60;99.90;;;;;;5069832;28;20225;-80
2021/03/11 05:44:12;;;;;;;5.90;4.60;;;7.60;99.90;;;;;;5056611;28;20215;-80
2021/03/11 05:46:40;;;;;;;13.05;6.47;;;7.60;99.90;;;;;;5055408;28;20296;-80
2021/03/11 05:49:08;;;;;;;6.68;5.10;;;7.60;99.90;;;;;;5055102;28;20199;-80
2021/03/11 05:51:34;;;;;;;7.75;5.72;;;7.60;99.90;;;;;;5055577;28;20191;-80
2021/03/11 05:54:03;;;;;;;8.02;6.20;;;7.60;99.90;;;;;;5056202;28;20890;-81
2021/03/11 05:56:30;;;;;;;6.50;5.25;;;7.60;99.90;;;;;;5055169;28;20193;-80
2021/03/11 05:58:57;;;;;;;7.50;6.32;;;7.60;99.90;;;;;;5054539;28;20289;-77
2021/03/11 06:01:25;;;;;;;5.72;5.18;;;7.60;99.90;;;;;;5054214;28;20218;-78
2021/03/11 06:03:54;;;;;;;11.27;5.95;;;7.60;99.90;;;;;;5052379;28;20242;-79
2021/03/11 06:06:21;;;;;;;8.20;6.07;;;7.60;99.90;;;;;;5061393;28;20210;-78
2021/03/11 06:08:52;;;;;;;6.30;5.70;;;7.60;99.90;;;;;;5053770;28;20195;-79
2021/03/11 06:11:21;;;;;;;9.10;4.45;;;7.60;99.90;;;;;;5053711;28;20187;-78
2021/03/11 06:13:48;;;;;;;6.88;5.20;;;7.60;99.90;;;;;;5053724;28;20225;-79
2021/03/11 06:16:20;;;;;;;8.60;5.75;;;7.60;99.90;;;;;;5054902;28;20199;-79
2021/03/11 06:18:49;;;;;;;5.72;5.03;;;7.60;99.90;;;;;;5056172;28;20195;-80
2021/03/11 06:21:16;;;;;;;6.70;5.38;;;7.70;99.90;;;;;;5056348;28;20198;-78
2021/03/11 06:23:42;;;;;;;11.18;6.78;;;7.70;99.90;;;;;;5057282;28;20222;-80
2021/03/11 06:26:11;;;;;;;8.00;5.75;;;7.70;99.90;;;;;;5055542;28;20705;-80
2021/03/11 06:28:51;;;;;;;10.18;5.82;;;7.80;99.90;;;;;;5056771;28;20611;-81
2021/03/11 06:31:18;;;;;;;9.85;6.43;;;7.80;99.90;;;;;;5055689;28;20198;-81
2021/03/11 06:33:45;;;;;;;5.82;4.65;;;7.90;99.90;;;;;;5055572;28;20221;-79
2021/03/11 06:36:11;;;;;;;7.07;5.47;;;7.90;99.90;;;;;;5064740;28;20194;-80
2021/03/11 06:38:38;;;;;;;9.68;5.90;;;8.00;99.90;;;;;;5076340;28;20589;-81
2021/03/11 06:41:04;;;;;;;7.97;4.65;;;8.00;99.90;;;;;;5076386;28;20190;-81
2021/03/11 06:43:31;;;;;;;8.63;4.55;;;8.10;99.90;;;;;;5075520;28;20218;-79
2021/03/11 06:46:06;;;;;;;5.65;4.65;;;8.10;99.90;;;;;;5072424;28;20280;-77
2021/03/11 06:48:32;;;;;;;6.30;4.85;;;8.20;99.90;;;;;;5053501;28;20198;-78
2021/03/11 06:51:00;;;;;;;5.57;4.72;;;8.20;99.90;;;;;;5053176;28;20199;-80
2021/03/11 06:53:26;;;;;;;5.13;3.67;;;8.30;99.90;;;;;;5053294;28;20218;-80
2021/03/11 06:55:53;;;;;;;6.07;4.45;;;8.30;99.90;;;;;;5055648;28;20707;-82
2021/03/11 06:58:20;;;;;;;6.05;4.45;;;8.30;99.90;;;;;;5056052;28;20201;-81
2021/03/11 07:00:49;;;;;;;5.80;4.57;;;8.30;99.90;;;;;;5055858;28;20194;-79
2021/03/11 07:03:16;;;;;;;7.75;5.60;;;8.40;99.90;;;;;;5056638;28;20195;-80
2021/03/11 07:05:43;;;;;;;6.25;5.47;;;8.40;99.90;;;;;;5060880;28;20209;-80
2021/03/11 07:08:12;;;;;;;7.55;5.13;;;8.40;99.90;;;;;;5055684;28;20211;-81
2021/03/11 07:10:38;;;;;;;5.25;4.07;;;8.50;99.90;;;;;;5056739;28;20293;-81
2021/03/11 07:13:06;;;;;;;6.40;4.90;;;8.50;99.90;;;;;;5055346;28;20191;-80
2021/03/11 07:15:34;;;;;;;5.53;4.95;;;8.50;99.90;;;;;;5055451;28;20216;-79
2021/03/11 07:18:01;;;;;;;6.95;5.22;;;8.50;99.90;;;;;;5054681;28;20229;-81
2021/03/11 07:20:31;;;;;;;7.35;5.10;;;8.60;99.90;;;;;;5055560;28;20211;-80
2021/03/11 07:23:06;;;;;;;5.25;4.20;;;8.60;99.90;;;;;;5054534;28;20195;-79
2021/03/11 07:25:35;;;;;;;6.55;4.82;;;8.60;99.90;;;;;;5053720;28;20268;-77
2021/03/11 07:28:05;;;;;;;8.77;5.10;;;8.60;99.90;;;;;;5052225;28;20250;-80
2021/03/11 07:30:32;;;;;;;9.10;8.20;;;8.60;99.90;;;;;;5055805;28;20248;-80
2021/03/11 07:33:02;;;;;;;8.38;6.35;;;8.70;99.90;;;;;;5053066;28;20625;-78
2021/03/11 07:35:31;;;;;;;7.60;4.88;;;8.70;99.90;;;;;;5062204;28;20220;-79
2021/03/11 07:37:59;;;;;;;7.45;4.55;;;8.80;99.90;;;;;;5072525;28;20186;-78
2021/03/11 07:40:27;;;;;;;4.55;3.83;;;8.90;99.90;;;;;;5076723;28;20568;-80
2021/03/11 07:42:54;;;;;;;6.22;3.97;;;8.90;99.90;;;;;;5076832;28;20201;-78
2021/03/11 07:45:20;;;;;;;7.80;5.35;;;9.00;99.90;;;;;;5077538;28;20221;-79
2021/03/11 07:47:48;;;;;;;6.32;5.10;;;9.00;99.90;;;;;;5075873;28;20235;-79
2021/03/11 07:50:21;;;;;;;6.47;5.75;;;9.10;99.90;;;;;;5077193;28;20202;-80
2021/03/11 07:52:48;;;;;;;4.85;4.00;;;9.20;99.90;;;;;;5076897;28;20642;-78
2021/03/11 07:55:15;;;;;;;7.57;4.53;;;9.30;99.90;;;;;;5077071;28;20220;-76
2021/03/11 07:57:45;;;;;;;4.30;3.28;;;9.60;99.90;;;;;;5076113;28;20202;-78
2021/03/11 08:00:14;;;;;;;1.77;1.67;;;9.90;99.90;;;;;;5076850;28;20192;-79
2021/03/11 08:02:45;;;;;;;6.45;2.83;;;10.20;99.90;;;;;;5076840;28;20227;-78
2021/03/11 08:05:12;;;;;;;4.72;3.33;;;10.30;99.90;;;;;;5068791;28;20322;-79
2021/03/11 08:07:38;;;;;;;4.30;3.00;;;10.40;99.90;;;;;;5070522;28;20220;-78
2021/03/11 08:10:20;;;;;;;4.18;3.78;;;10.30;99.90;;;;;;5076986;28;20199;-78
2021/03/11 08:12:46;;;;;;;5.63;3.80;;;10.40;99.90;;;;;;5072713;28;20533;-78
2021/03/11 08:15:32;;;;;;;3.55;2.10;;;10.40;99.90;;;;;;5066726;28;20217;-79
2021/03/11 08:17:58;;;;;;;1.70;1.60;;;10.40;99.90;;;;;;5077088;28;20176;-80
2021/03/11 08:20:40;;;;;;;4.13;2.65;;;10.50;99.90;;;;;;5077433;28;20196;-79
2021/03/11 08:23:13;;;;;;;1.88;1.75;;;10.50;99.90;;;;;;5077117;28;20196;-79
2021/03/11 08:25:47;;;;;;;2.75;1.50;;;10.50;99.90;;;;;;5067749;28;20202;-78
2021/03/11 08:28:47;;;;;;;5.57;1.30;;;10.50;99.90;;;;;;5055919;28;20210;-79
2021/03/11 08:31:13;;;;;;;0.90;0.80;;;10.40;99.90;;;;;;5057451;28;20196;-80
2021/03/11 08:33:50;;;;;;;6.15;0.95;;;10.40;99.90;;;;;;5057131;28;20222;-78
2021/03/11 08:36:37;;;;;;;1.52;0.98;;;10.30;99.90;;;;;;5066843;28;20200;-77
2021/03/11 08:39:25;;;;;;;1.10;1.00;;;10.20;99.90;;;;;;5076807;28;20264;-78
2021/03/11 08:41:53;;;;;;;1.50;1.40;;;10.30;99.90;;;;;;5076852;28;20202;-80
2021/03/11 08:44:44;;;;;;;14.85;1.20;;;10.30;99.90;;;;;;5077961;28;20591;-79
2021/03/11 08:47:11;;;;;;;2.55;2.28;;;10.30;99.90;;;;;;5075787;28;20232;-80
2021/03/11 08:49:40;;;;;;;1.85;1.10;;;10.40;99.90;;;;;;5076495;28;20196;-79
2021/03/11 08:52:07;;;;;;;2.90;1.73;;;10.40;99.90;;;;;;5076771;28;20667;-78
2021/03/11 08:54:33;;;;;;;1.60;1.50;;;10.40;99.90;;;;;;5076763;28;20583;-79
2021/03/11 08:57:01;;;;;;;2.97;2.38;;;10.40;99.90;;;;;;5077393;28;20203;-78
2021/03/11 08:59:47;;;;;;;3.22;1.95;;;10.40;99.90;;;;;;5077630;28;20243;-80
2021/03/11 09:02:33;;;;;;;2.17;2.08;;;10.60;99.90;;;;;;5077894;28;20532;-79
2021/03/11 09:04:59;;;;;;;1.63;1.20;;;10.60;99.90;;;;;;5062378;28;20235;-79
2021/03/11 09:07:31;;;;;;;1.75;1.65;;;10.70;99.90;;;;;;5069066;28;20235;-80
2021/03/11 09:09:58;;;;;;;2.10;1.20;;;10.70;99.90;;;;;;5078277;28;20197;-81
2021/03/11 09:12:32;;;;;;;7.68;1.92;;;10.80;99.90;;;;;;5077717;28;20290;-81
2021/03/11 09:15:00;;;;;;;0.50;0.50;;;10.80;99.90;;;;;;5078029;28;20617;-80
2021/03/11 09:17:28;;;;;;;10.38;1.55;;;10.90;99.90;;;;;;5077543;28;20280;-80
2021/03/11 09:20:00;;;;;;;2.17;0.70;;;10.90;99.90;;;;;;5076661;28;20236;-79
2021/03/11 09:22:29;;;;;;;2.58;1.33;;;10.90;99.90;;;;;;5076894;28;20280;-77
2021/03/11 09:25:14;;;;;;;2.03;1.55;;;10.90;99.90;;;;;;5074099;28;20221;-79
2021/03/11 09:27:51;;;;;;;0.50;0.40;;;10.90;99.90;;;;;;5049726;28;20212;-79
2021/03/11 09:30:22;;;;;;;9.80;1.98;;;10.80;99.90;;;;;;5056613;28;20200;-79
2021/03/11 09:32:49;;;;;;;1.10;1.00;;;10.80;99.90;;;;;;5055663;28;20195;-79
2021/03/11 09:35:16;;;;;;;2.60;0.85;;;10.90;99.90;;;;;;5066846;28;20217;-80
2021/03/11 09:37:44;;;;;;;1.35;0.95;;;10.90;99.90;;;;;;5059448;28;20237;-82
2021/03/11 09:40:12;;;;;;;0.93;0.68;;;10.90;99.90;;;;;;5055748;28;20572;-80
2021/03/11 09:43:01;;;;;;;0.60;0.50;;;11.00;99.90;;;;;;5056344;28;20199;-80
2021/03/11 09:45:32;;;;;;;2.58;0.55;;;11.00;99.90;;;;;;5055709;28;20228;-81
2021/03/11 09:48:04;;;;;;;4.53;0.85;;;11.10;99.90;;;;;;5057154;28;20219;-80
2021/03/11 09:50:31;;;;;;;2.17;1.08;;;11.10;99.90;;;;;;5059184;28;20181;-81
2021/03/11 09:52:58;;;;;;;0.70;0.70;;;11.10;99.90;;;;;;5058416;28;20679;-80
2021/03/11 09:55:24;;;;;;;4.63;1.08;;;11.10;99.90;;;;;;5058839;28;20279;-80
2021/03/11 09:57:51;;;;;;;3.53;1.40;;;11.10;99.90;;;;;;5057294;28;20197;-81
2021/03/11 10:00:19;;;;;;;2.28;1.15;;;11.80;99.90;;;;;;5060172;28;20207;-81
2021/03/11 10:02:47;;;;;;;5.25;1.23;;;12.70;99.90;;;;;;5060044;28;20693;-80
2021/03/11 10:05:13;;;;;;;2.13;0.50;;;13.30;99.90;;;;;;5056874;28;20663;-83
2021/03/11 10:07:40;;;;;;;9.43;2.00;;;14.00;99.90;;;;;;5095083;22;20217;-82
2021/03/11 10:10:11;;;;;;;5.78;1.23;;;14.00;99.90;;;;;;5088187;28;20284;-82
2021/03/11 10:12:38;;;;;;;2.90;0.90;;;13.60;99.90;;;;;;5088196;28;20178;-82
2021/03/11 10:15:06;;;;;;;7.13;2.17;;;13.60;99.90;;;;;;5087764;28;20489;-82
2021/03/11 10:17:33;;;;;;;1.33;0.90;;;13.80;99.90;;;;;;5087586;28;20463;-82
2021/03/11 10:20:19;;;;;;;1.07;0.70;;;14.10;99.90;;;;;;5087028;28;20255;-81
2021/03/11 10:22:46;;;;;;;0.77;0.60;;;14.70;99.90;;;;;;5086426;28;20427;-82
2021/03/11 10:25:14;;;;;;;2.73;0.80;;;15.20;99.90;;;;;;5087296;28;20432;-82
2021/03/11 10:27:44;;;;;;;1.23;1.13;;;15.20;99.90;;;;;;5087205;28;20476;-80
2021/03/11 10:30:12;;;;;;;1.63;1.53;;;15.60;99.90;;;;;;5087361;28;20521;-82
2021/03/11 10:32:41;;;;;;;2.00;1.90;;;16.00;99.90;;;;;;5088107;28;20447;-82
2021/03/11 10:35:12;;;;;;;8.47;1.23;;;16.10;99.90;;;;;;5088064;28;20439;-82
2021/03/11 10:37:40;;;;;;;2.13;0.90;;;15.70;99.90;;;;;;5086779;28;20806;-82
2021/03/11 10:40:08;;;;;;;3.63;0.93;;;15.60;99.90;;;;;;5079237;28;20433;-81
2021/03/11 10:42:43;;;;;;;3.17;1.73;;;15.80;99.90;;;;;;5087522;28;20950;-82
2021/03/11 10:45:11;;;;;;;6.57;2.73;;;15.00;99.90;;;;;;5088109;28;20629;-81
2021/03/11 10:47:39;;;;;;;2.97;0.90;;;14.70;99.90;;;;;;5087067;28;20487;-80
2021/03/11 10:50:17;;;;;;;1.33;0.70;;;14.40;99.90;;;;;;5088594;28;20440;-81
2021/03/11 10:52:47;;;;;;;1.60;1.00;;;14.20;99.90;;;;;;5088000;28;20440;-80
2021/03/11 10:55:29;;;;;;;2.00;0.97;;;14.20;99.90;;;;;;5087957;28;20417;-82
2021/03/11 10:57:55;;;;;;;0.80;0.63;;;14.50;99.90;;;;;;5087068;28;21002;-80
2021/03/11 11:00:24;;;;;;;3.80;0.60;;;15.20;99.90;;;;;;5088502;28;20437;-81
2021/03/11 11:02:56;;;;;;;5.80;1.00;;;15.10;99.90;;;;;;5088110;28;20502;-80
2021/03/11 11:05:23;;;;;;;0.60;0.50;;;15.00;99.90;;;;;;5087393;28;20443;-81
2021/03/11 11:07:49;;;;;;;1.13;0.77;;;14.40;99.90;;;;;;5086760;28;20491;-81
2021/03/11 11:10:17;;;;;;;4.20;0.80;;;14.90;99.90;;;;;;5079682;28;20474;-81
2021/03/11 11:12:44;;;;;;;6.63;1.20;;;14.80;99.90;;;;;;5088600;28;20512;-80
2021/03/11 11:15:11;;;;;;;5.65;2.10;;;14.50;99.90;;;;;;5087674;28;20439;-81
2021/03/11 11:17:37;;;;;;;1.30;1.20;;;14.10;99.90;;;;;;5086713;28;20214;-81
2021/03/11 11:20:07;;;;;;;0.60;0.40;;;13.90;99.90;;;;;;5087432;28;20831;-80
2021/03/11 11:22:34;;;;;;;1.52;1.42;;;13.80;99.90;;;;;;5087916;28;20275;-80
2021/03/11 11:25:00;;;;;;;1.80;1.20;;;13.80;99.90;;;;;;5089000;28;20208;-81
2021/03/11 11:27:27;;;;;;;5.07;0.90;;;13.80;99.90;;;;;;5086900;28;20217;-80
2021/03/11 11:29:54;;;;;;;1.95;1.85;;;14.00;99.90;;;;;;5087422;28;20188;-81
2021/03/11 11:32:23;;;;;;;0.50;0.40;;;14.10;99.90;;;;;;5088499;28;20198;-80
2021/03/11 11:34:49;;;;;;;2.40;1.13;;;14.70;99.90;;;;;;5088183;28;20420;-80
2021/03/11 11:37:17;;;;;;;1.00;0.70;;;15.40;99.90;;;;;;5087317;28;20540;-81
2021/03/11 11:39:44;;;;;;;2.70;1.33;;;15.10;99.90;;;;;;5087739;28;20433;-80
2021/03/11 11:42:11;;;;;;;1.37;0.70;;;15.20;99.90;;;;;;5087525;28;20809;-80
2021/03/11 11:44:38;;;;;;;1.73;1.27;;;15.20;98.40;;;;;;5087594;28;20435;-81
2021/03/11 11:47:05;;;;;;;1.57;0.80;;;15.00;99.90;;;;;;5087126;28;20464;-80
2021/03/11 11:49:31;;;;;;;6.93;1.33;;;15.20;97.60;;;;;;5088319;28;20465;-80
2021/03/11 11:51:57;;;;;;;15.03;1.27;;;15.30;95.80;;;;;;5087347;28;20441;-81
2021/03/11 11:54:25;;;;;;;1.60;0.60;;;15.50;97.30;;;;;;5087969;28;20459;-82
2021/03/11 11:56:51;;;;;;;3.63;1.13;;;15.10;97.20;;;;;;5086777;28;20445;-79
2021/03/11 11:59:18;;;;;;;10.60;1.50;;;15.30;98.70;;;;;;5087738;28;20442;-80
2021/03/11 12:01:44;;;;;;;0.60;0.40;;;14.90;99.90;;;;;;5088163;28;20462;-79
2021/03/11 12:04:12;;;;;;;3.53;1.00;;;15.00;99.90;;;;;;5087308;28;20834;-79
2021/03/11 12:06:38;;;;;;;0.93;0.40;;;15.00;99.90;;;;;;5086868;28;20443;-79
2021/03/11 12:09:04;;;;;;;0.63;0.60;;;14.90;99.90;;;;;;5078941;28;20449;-83
2021/03/11 12:11:34;;;;;;;1.93;1.53;;;14.70;99.90;;;;;;5087907;28;20436;-80
2021/03/11 12:14:00;;;;;;;4.63;1.07;;;14.30;99.90;;;;;;5088301;28;20937;-80
2021/03/11 12:16:27;;;;;;;0.80;0.65;;;14.20;99.90;;;;;;5087154;28;20500;-81
2021/03/11 12:18:53;;;;;;;3.37;1.63;;;14.50;99.90;;;;;;5087974;28;20218;-81
2021/03/11 12:21:19;;;;;;;1.00;0.80;;;14.70;99.90;;;;;;5089894;28;20431;-82
2021/03/11 12:23:46;;;;;;;3.63;1.40;;;14.80;99.90;;;;;;5090821;28;20435;-82
2021/03/11 12:26:14;;;;;;;6.23;2.00;;;15.10;97.30;;;;;;5091116;28;20428;-81
2021/03/11 12:28:41;;;;;;;0.87;0.87;;;14.80;99.90;;;;;;5091938;28;20475;-80
2021/03/11 12:31:08;;;;;;;3.13;0.87;;;15.20;98.30;;;;;;5091423;28;20436;-80
2021/03/11 12:33:35;;;;;;;2.10;1.43;;;15.90;95.80;;;;;;5091577;28;20948;-80
2021/03/11 12:36:01;;;;;;;4.30;1.00;;;16.10;93.20;;;;;;5090872;28;20520;-81
2021/03/11 12:38:27;;;;;;;5.57;1.90;;;16.10;93.50;;;;;;5087279;28;20447;-81
2021/03/11 12:40:54;;;;;;;2.00;0.93;;;16.00;91.60;;;;;;5086541;28;20906;-81
2021/03/11 12:43:20;;;;;;;1.10;0.67;;;15.50;94.30;;;;;;5091880;28;20444;-80
2021/03/11 12:45:47;;;;;;;5.93;0.93;;;15.70;94.90;;;;;;5089783;28;21009;-77
2021/03/11 12:48:14;;;;;;;1.07;0.70;;;15.60;94.20;;;;;;5090311;28;20487;-80
2021/03/11 12:50:40;;;;;;;4.00;1.63;;;15.50;97.30;;;;;;5089683;28;20440;-81
2021/03/11 12:53:06;;;;;;;2.87;0.60;;;15.30;97.10;;;;;;5089979;28;20440;-81
2021/03/11 12:55:32;;;;;;;0.73;0.60;;;15.20;99.90;;;;;;5090366;28;20438;-81